createdAt,value
2022-11-27T00:01:14.858Z,19.93
2022-11-27T00:03:42.366Z,19.82
2022-11-27T00:06:13.291Z,19.89
2022-11-27T00:08:40.791Z,19.98
2022-11-27T00:11:09.275Z,20.00
2022-11-27T00:13:36.809Z,20.06
2022-11-27T00:16:05.481Z,19.91
2022-11-27T00:18:33.471Z,19.95
2022-11-27T00:21:04.945Z,19.90
2022-11-27T00:23:33.284Z,19.85
2022-11-27T00:26:00.805Z,19.87
2022-11-27T00:28:28.309Z,20.18
2022-11-27T00:30:59.319Z,20.00
2022-11-27T00:33:26.708Z,19.90
2022-11-27T00:35:54.149Z,19.92
2022-11-27T00:38:21.475Z,20.02
2022-11-27T00:40:48.687Z,19.92
2022-11-27T00:43:16.083Z,20.31
2022-11-27T00:45:43.263Z,20.07
2022-11-27T00:48:10.495Z,20.02
2022-11-27T00:50:37.754Z,20.00
2022-11-27T00:53:05.076Z,19.90
2022-11-27T00:55:32.256Z,19.92
2022-11-27T00:57:59.529Z,19.99
2022-11-27T01:00:26.786Z,19.99
2022-11-27T01:02:54.155Z,19.96
2022-11-27T01:05:21.494Z,20.02
2022-11-27T01:07:48.770Z,19.97
2022-11-27T01:10:16.074Z,19.96
2022-11-27T01:12:43.438Z,20.00
2022-11-27T01:15:10.901Z,20.07
2022-11-27T01:17:38.135Z,20.07
2022-11-27T01:20:06.053Z,19.91
2022-11-27T01:22:33.429Z,19.98
2022-11-27T01:25:00.611Z,19.90
2022-11-27T01:27:27.969Z,20.07
2022-11-27T01:29:55.169Z,19.98
2022-11-27T01:32:22.589Z,20.02
2022-11-27T01:34:50.212Z,19.88
2022-11-27T01:37:17.412Z,19.97
2022-11-27T01:39:44.608Z,19.91
2022-11-27T01:42:12.179Z,19.94
2022-11-27T01:44:50.378Z,19.96
2022-11-27T01:47:29.405Z,19.93
2022-11-27T01:49:59.698Z,19.96
2022-11-27T01:52:33.976Z,19.93
2022-11-27T01:55:19.016Z,20.07
2022-11-27T01:57:48.794Z,19.98
2022-11-27T02:00:16.768Z,19.97
2022-11-27T02:02:44.920Z,19.98
2022-11-27T02:05:15.188Z,20.15
2022-11-27T02:07:42.548Z,20.14
2022-11-27T02:10:09.964Z,19.89
2022-11-27T02:12:37.436Z,19.97
2022-11-27T02:15:07.504Z,20.04
2022-11-27T02:17:42.435Z,20.02
2022-11-27T02:20:28.548Z,19.90
2022-11-27T02:23:25.541Z,20.01
2022-11-27T02:26:08.165Z,19.95
2022-11-27T02:28:35.410Z,19.93
2022-11-27T02:31:06.929Z,20.21
2022-11-27T02:33:35.263Z,20.08
2022-11-27T02:36:12.223Z,19.93
2022-11-27T02:38:42.758Z,19.99
2022-11-27T02:41:14.468Z,20.04
2022-11-27T02:43:45.155Z,20.09
2022-11-27T02:46:13.526Z,20.02
2022-11-27T02:48:45.417Z,20.08
2022-11-27T02:51:14.980Z,20.18
2022-11-27T02:53:54.085Z,20.08
2022-11-27T02:56:23.901Z,20.15
2022-11-27T02:58:52.692Z,20.18
2022-11-27T03:01:21.391Z,20.16
2022-11-27T03:03:56.070Z,20.15
2022-11-27T03:06:27.417Z,19.99
2022-11-27T03:08:58.281Z,19.89
2022-11-27T03:11:26.709Z,19.94
2022-11-27T03:13:55.650Z,20.01
2022-11-27T03:16:32.186Z,20.09
2022-11-27T03:18:59.387Z,20.13
2022-11-27T03:21:32.608Z,20.06
2022-11-27T03:24:00.303Z,19.92
2022-11-27T03:26:27.558Z,19.99
2022-11-27T03:28:55.670Z,19.97
2022-11-27T03:31:23.956Z,20.09
2022-11-27T03:33:51.515Z,19.94
2022-11-27T03:36:20.048Z,20.03
2022-11-27T03:38:49.085Z,20.08
2022-11-27T03:41:21.542Z,19.99
2022-11-27T03:44:03.529Z,19.91
2022-11-27T03:46:38.384Z,20.01
2022-11-27T03:49:11.014Z,19.95
2022-11-27T03:51:41.977Z,19.91
2022-11-27T03:54:16.526Z,19.88
2022-11-27T03:56:49.295Z,20.02
2022-11-27T03:59:34.239Z,20.13
2022-11-27T04:02:01.629Z,20.05
2022-11-27T04:04:28.822Z,19.91
2022-11-27T04:06:56.107Z,19.89
2022-11-27T04:09:25.648Z,19.89
2022-11-27T04:11:52.893Z,19.83
2022-11-27T04:14:20.163Z,20.02
2022-11-27T04:16:47.564Z,19.88
2022-11-27T04:19:14.741Z,19.82
2022-11-27T04:21:41.948Z,19.95
2022-11-27T04:24:09.242Z,20.07
2022-11-27T04:26:36.527Z,19.94
2022-11-27T04:29:03.839Z,19.99
2022-11-27T04:31:31.263Z,19.89
2022-11-27T04:33:59.517Z,19.92
2022-11-27T04:36:26.762Z,19.94
2022-11-27T04:38:53.974Z,19.96
2022-11-27T04:41:21.178Z,20.00
2022-11-27T04:43:48.344Z,19.88
2022-11-27T04:46:16.558Z,19.90
2022-11-27T04:48:43.802Z,19.93
2022-11-27T04:51:11.125Z,19.95
2022-11-27T04:53:38.450Z,19.93
2022-11-27T04:56:05.962Z,19.94
2022-11-27T04:58:33.144Z,19.82
2022-11-27T05:01:00.407Z,19.92
2022-11-27T05:03:27.667Z,19.79
2022-11-27T05:05:56.517Z,19.88
2022-11-27T05:08:24.658Z,19.91
2022-11-27T05:11:18.279Z,19.94
2022-11-27T05:13:45.619Z,19.95
2022-11-27T05:16:13.302Z,19.86
2022-11-27T05:18:40.581Z,19.83
2022-11-27T05:21:08.276Z,19.92
2022-11-27T05:23:35.675Z,19.88
2022-11-27T05:26:03.579Z,20.01
2022-11-27T05:28:30.900Z,19.87
2022-11-27T05:30:58.215Z,19.92
2022-11-27T05:33:25.524Z,19.97
2022-11-27T05:35:52.858Z,19.87
2022-11-27T05:38:20.161Z,19.91
2022-11-27T05:40:48.554Z,19.96
2022-11-27T05:43:15.987Z,20.00
2022-11-27T05:45:43.213Z,20.16
2022-11-27T05:48:10.505Z,20.10
2022-11-27T05:50:37.765Z,19.94
2022-11-27T05:53:05.371Z,19.93
2022-11-27T05:55:32.635Z,20.03
2022-11-27T05:58:00.167Z,20.00
2022-11-27T06:00:27.456Z,20.04
2022-11-27T06:02:55.286Z,20.06
2022-11-27T06:05:22.627Z,19.97
2022-11-27T06:07:50.030Z,20.18
2022-11-27T06:10:17.285Z,20.16
2022-11-27T06:12:44.592Z,20.00
2022-11-27T06:15:11.820Z,20.07
2022-11-27T06:17:39.392Z,20.06
2022-11-27T06:20:06.978Z,20.01
2022-11-27T06:22:34.219Z,20.17
2022-11-27T06:25:01.500Z,20.04
2022-11-27T06:27:32.411Z,20.01
2022-11-27T06:29:59.668Z,19.98
2022-11-27T06:32:26.933Z,20.03
2022-11-27T06:34:54.350Z,19.98
2022-11-27T06:37:21.545Z,20.00
2022-11-27T06:39:49.404Z,19.96
2022-11-27T06:42:16.852Z,20.04
2022-11-27T06:44:44.204Z,20.03
2022-11-27T06:47:11.399Z,20.03
2022-11-27T06:49:38.738Z,20.09
2022-11-27T06:52:06.125Z,20.01
2022-11-27T06:54:33.446Z,20.06
2022-11-27T06:57:00.666Z,20.18
2022-11-27T06:59:27.956Z,20.10
2022-11-27T07:01:55.610Z,19.98
2022-11-27T07:04:23.247Z,19.99
2022-11-27T07:06:50.454Z,20.00
2022-11-27T07:09:17.810Z,20.04
2022-11-27T07:11:45.034Z,20.02
2022-11-27T07:14:12.523Z,20.06
2022-11-27T07:16:39.773Z,19.98
2022-11-27T07:19:07.969Z,19.92
2022-11-27T07:21:36.475Z,19.95
2022-11-27T07:24:03.823Z,20.02
2022-11-27T07:26:31.276Z,20.08
2022-11-27T07:28:58.752Z,20.02
2022-11-27T07:31:28.291Z,19.92
2022-11-27T07:33:56.302Z,19.90
2022-11-27T07:36:24.646Z,20.00
2022-11-27T07:38:52.170Z,19.87
2022-11-27T07:41:19.649Z,19.98
2022-11-27T07:43:47.310Z,19.92
2022-11-27T07:46:23.258Z,19.94
2022-11-27T07:48:50.928Z,20.02
2022-11-27T07:51:19.356Z,19.94
2022-11-27T07:53:46.782Z,19.89
2022-11-27T07:56:14.953Z,19.94
2022-11-27T07:58:42.223Z,19.92
2022-11-27T08:01:11.037Z,20.06
2022-11-27T08:03:38.577Z,20.13
2022-11-27T08:06:13.115Z,20.02
2022-11-27T08:08:40.418Z,19.91
2022-11-27T08:11:14.715Z,20.02
2022-11-27T08:13:42.033Z,20.04
2022-11-27T08:16:09.284Z,19.99
2022-11-27T08:18:36.618Z,20.08
2022-11-27T08:21:04.083Z,20.03
2022-11-27T08:23:31.415Z,20.01
2022-11-27T08:25:58.761Z,20.02
2022-11-27T08:28:25.991Z,20.01
2022-11-27T08:30:57.423Z,20.07
2022-11-27T08:33:24.931Z,20.06
2022-11-27T08:35:52.231Z,20.02
2022-11-27T08:38:19.999Z,20.14
2022-11-27T08:40:54.308Z,20.25
2022-11-27T08:43:22.379Z,20.14
2022-11-27T08:45:49.903Z,20.04
2022-11-27T08:48:17.834Z,20.10
2022-11-27T08:50:45.105Z,20.27
2022-11-27T08:53:12.739Z,20.06
2022-11-27T08:55:40.200Z,19.99
2022-11-27T08:58:07.852Z,20.03
2022-11-27T09:00:35.848Z,20.13
2022-11-27T09:03:03.513Z,20.07
2022-11-27T09:05:31.179Z,20.26
2022-11-27T09:07:59.781Z,20.10
2022-11-27T09:10:27.294Z,20.04
2022-11-27T09:12:56.332Z,20.09
2022-11-27T09:15:23.664Z,20.16
2022-11-27T09:17:51.009Z,20.31
2022-11-27T09:20:18.272Z,20.12
2022-11-27T09:22:45.877Z,20.08
2022-11-27T09:25:13.210Z,20.08
2022-11-27T09:27:41.553Z,20.03
2022-11-27T09:30:09.009Z,20.23
2022-11-27T09:32:37.027Z,20.02
2022-11-27T09:35:04.430Z,20.09
2022-11-27T09:37:31.708Z,20.07
2022-11-27T09:39:59.371Z,20.03
2022-11-27T09:42:36.474Z,20.15
2022-11-27T09:45:07.395Z,20.03
2022-11-27T09:47:50.309Z,20.01
2022-11-27T09:50:21.217Z,20.04
2022-11-27T09:52:54.647Z,19.95
2022-11-27T09:55:43.294Z,19.90
2022-11-27T09:58:19.549Z,19.96
2022-11-27T10:00:47.201Z,19.90
2022-11-27T10:03:15.645Z,20.07
2022-11-27T10:05:48.042Z,19.99
2022-11-27T10:08:26.606Z,20.00
2022-11-27T10:10:53.966Z,20.13
2022-11-27T10:13:21.158Z,20.09
2022-11-27T10:15:51.424Z,20.30
2022-11-27T10:18:36.895Z,20.24
2022-11-27T10:21:24.308Z,20.32
2022-11-27T10:24:03.858Z,20.06
2022-11-27T10:26:44.395Z,20.08
2022-11-27T10:29:17.799Z,20.03
2022-11-27T10:32:08.173Z,20.03
2022-11-27T10:34:44.953Z,20.09
2022-11-27T10:37:17.760Z,20.06
2022-11-27T10:39:54.253Z,20.12
2022-11-27T10:42:28.127Z,20.11
2022-11-27T10:45:00.641Z,20.07
2022-11-27T10:47:33.525Z,20.07
2022-11-27T10:50:01.347Z,20.02
2022-11-27T10:52:28.736Z,20.12
2022-11-27T10:54:58.216Z,20.15
2022-11-27T10:57:40.818Z,20.01
2022-11-27T11:00:08.176Z,20.16
2022-11-27T11:02:37.926Z,20.16
2022-11-27T11:08:14.508Z,19.97
2022-11-27T11:10:50.520Z,19.91
2022-11-27T11:13:22.823Z,20.00
2022-11-27T11:15:54.576Z,20.11
2022-11-27T11:18:23.495Z,20.10
2022-11-27T11:20:52.596Z,20.15
2022-11-27T11:23:31.210Z,20.15
2022-11-27T11:26:01.232Z,20.19
2022-11-27T11:28:29.115Z,20.22
2022-11-27T11:31:05.857Z,20.17
2022-11-27T11:33:38.659Z,20.27
2022-11-27T11:36:10.453Z,20.28
2022-11-27T11:38:38.614Z,20.09
2022-11-27T11:41:06.743Z,20.11
2022-11-27T11:43:35.808Z,20.12
2022-11-27T11:46:08.553Z,20.04
2022-11-27T11:48:37.165Z,20.03
2022-11-27T11:51:16.137Z,20.16
2022-11-27T11:53:45.686Z,20.12
2022-11-27T11:56:15.917Z,20.03
2022-11-27T11:59:03.003Z,20.08
2022-11-27T12:01:43.677Z,20.17
2022-11-27T12:04:10.997Z,20.08
2022-11-27T12:06:44.371Z,20.04
2022-11-27T12:09:11.631Z,20.04
2022-11-27T12:11:57.817Z,20.19
2022-11-27T12:14:30.831Z,20.19
2022-11-27T12:17:16.582Z,20.02
2022-11-27T12:19:49.783Z,20.04
2022-11-27T12:22:26.021Z,20.00
2022-11-27T12:25:06.645Z,20.27
2022-11-27T12:27:52.533Z,20.19
2022-11-27T12:30:21.905Z,20.00
2022-11-27T12:32:52.223Z,20.11
2022-11-27T12:35:41.937Z,20.14
2022-11-27T12:38:28.783Z,19.92
2022-11-27T12:40:56.159Z,20.24
2022-11-27T12:43:27.450Z,20.22
2022-11-27T12:45:57.942Z,20.05
2022-11-27T12:48:28.267Z,19.96
2022-11-27T12:50:59.307Z,20.08
2022-11-27T12:53:41.703Z,20.15
2022-11-27T12:56:11.915Z,20.25
2022-11-27T12:58:45.219Z,20.22
2022-11-27T13:01:38.779Z,19.80
2022-11-27T13:04:22.308Z,19.87
2022-11-27T13:07:03.312Z,20.11
2022-11-27T13:09:45.782Z,20.30
2022-11-27T13:12:21.520Z,20.11
2022-11-27T13:14:55.120Z,19.98
2022-11-27T13:17:25.735Z,20.17
2022-11-27T13:19:53.264Z,20.25
2022-11-27T13:22:27.624Z,20.20
2022-11-27T13:24:56.557Z,20.12
2022-11-27T13:27:25.974Z,20.14
2022-11-27T13:29:55.659Z,20.18
2022-11-27T13:32:27.687Z,20.17
2022-11-27T13:34:57.541Z,20.16
2022-11-27T13:37:33.170Z,20.20
2022-11-27T13:40:06.737Z,20.33
2022-11-27T13:42:36.001Z,20.03
2022-11-27T13:45:05.868Z,20.14
2022-11-27T13:47:43.878Z,20.22
2022-11-27T13:50:12.971Z,20.21
2022-11-27T13:53:04.378Z,20.21
2022-11-27T13:55:33.523Z,20.21
2022-11-27T13:58:02.588Z,20.09
2022-11-27T14:00:35.405Z,20.32
2022-11-27T14:03:02.770Z,20.22
2022-11-27T14:05:39.017Z,20.29
2022-11-27T14:08:16.550Z,20.24
2022-11-27T14:10:49.092Z,20.07
2022-11-27T14:13:16.654Z,20.17
2022-11-27T14:15:43.856Z,20.24
2022-11-27T14:18:14.143Z,20.19
2022-11-27T14:20:51.875Z,20.02
2022-11-27T14:23:32.980Z,20.30
2022-11-27T14:26:13.473Z,20.25
2022-11-27T14:28:46.325Z,20.33
2022-11-27T14:31:23.270Z,20.41
2022-11-27T14:34:14.059Z,20.32
2022-11-27T14:36:37.949Z,20.23
2022-11-27T14:39:05.172Z,20.21
2022-11-27T14:41:32.529Z,20.08
2022-11-27T14:44:15.062Z,20.00
2022-11-27T14:46:42.544Z,20.29
2022-11-27T14:49:16.331Z,20.28
2022-11-27T14:51:43.888Z,20.20
2022-11-27T14:54:12.201Z,20.15
2022-11-27T14:56:42.215Z,20.07
2022-11-27T14:59:17.030Z,20.25
2022-11-27T15:01:46.671Z,20.11
2022-11-27T15:04:27.655Z,20.21
2022-11-27T15:06:56.035Z,20.22
2022-11-27T15:09:31.924Z,20.35
2022-11-27T15:12:14.434Z,20.26
2022-11-27T15:14:45.847Z,20.28
2022-11-27T15:17:16.611Z,20.12
2022-11-27T15:19:44.059Z,20.09
2022-11-27T15:22:20.316Z,20.10
2022-11-27T15:24:57.811Z,20.08
2022-11-27T15:27:25.186Z,20.19
2022-11-27T15:29:52.479Z,20.04
2022-11-27T15:32:23.724Z,20.10
2022-11-27T15:34:54.868Z,20.23
2022-11-27T15:37:25.315Z,20.09
2022-11-27T15:39:53.586Z,20.21
2022-11-27T15:42:21.871Z,20.09
2022-11-27T15:44:50.054Z,20.03
2022-11-27T15:47:31.836Z,20.21
2022-11-27T15:49:59.491Z,20.27
2022-11-27T15:52:26.748Z,20.23
2022-11-27T15:54:55.457Z,20.09
2022-11-27T15:57:23.151Z,20.06
2022-11-27T15:59:50.487Z,20.14
2022-11-27T16:02:18.535Z,20.14
2022-11-27T16:04:45.960Z,20.12
2022-11-27T16:07:13.171Z,20.10
2022-11-27T16:09:40.743Z,20.19
2022-11-27T16:12:07.989Z,20.24
2022-11-27T16:14:35.346Z,20.55
2022-11-27T16:17:02.674Z,20.36
2022-11-27T16:19:30.319Z,20.25
2022-11-27T16:21:57.801Z,20.02
2022-11-27T16:24:25.123Z,20.33
2022-11-27T16:26:52.396Z,20.50
2022-11-27T16:29:19.784Z,20.38
2022-11-27T16:31:47.467Z,20.44
2022-11-27T16:34:16.522Z,20.28
2022-11-27T16:36:43.919Z,20.22
2022-11-27T16:39:12.138Z,20.26
2022-11-27T16:41:40.156Z,20.26
2022-11-27T16:44:14.883Z,20.24
2022-11-27T16:46:44.638Z,20.30
2022-11-27T16:49:12.373Z,20.26
2022-11-27T16:51:41.014Z,20.31
2022-11-27T16:54:12.271Z,20.32
2022-11-27T16:56:41.932Z,20.23
2022-11-27T16:59:10.682Z,20.27
2022-11-27T17:01:41.032Z,20.35
2022-11-27T17:04:12.478Z,20.32
2022-11-27T17:06:39.923Z,20.48
2022-11-27T17:09:07.831Z,20.32
2022-11-27T17:11:36.468Z,20.21
2022-11-27T17:14:05.885Z,20.15
2022-11-27T17:16:34.525Z,20.15
2022-11-27T17:19:03.919Z,20.33
2022-11-27T17:21:32.984Z,20.14
2022-11-27T17:24:02.091Z,20.22
2022-11-27T17:26:35.407Z,20.26
2022-11-27T17:29:03.617Z,20.18
2022-11-27T17:31:37.075Z,20.34
2022-11-27T17:34:06.006Z,20.28
2022-11-27T17:36:37.140Z,20.22
2022-11-27T17:39:06.589Z,20.39
2022-11-27T17:41:34.491Z,20.48
2022-11-27T17:44:05.544Z,20.16
2022-11-27T17:46:33.713Z,20.13
2022-11-27T17:49:03.821Z,20.09
2022-11-27T17:51:33.144Z,20.11
2022-11-27T17:54:01.861Z,20.23
2022-11-27T17:56:32.700Z,20.39
2022-11-27T17:59:00.242Z,20.23
2022-11-27T18:01:29.308Z,20.26
2022-11-27T18:03:59.931Z,20.23
2022-11-27T18:06:30.222Z,20.14
2022-11-27T18:08:58.298Z,20.31
2022-11-27T18:11:26.762Z,20.29
2022-11-27T18:13:54.720Z,20.16
2022-11-27T18:16:25.308Z,20.33
2022-11-27T18:18:54.354Z,20.50
2022-11-27T18:21:21.975Z,20.26
2022-11-27T18:24:21.421Z,20.28
2022-11-27T18:29:24.959Z,20.21
2022-11-27T18:31:53.469Z,20.30
2022-11-27T18:34:20.720Z,20.40
2022-11-27T18:36:48.008Z,20.25
2022-11-27T18:39:15.779Z,20.24
2022-11-27T18:41:42.992Z,20.58
2022-11-27T18:44:10.502Z,20.28
2022-11-27T18:46:38.763Z,20.15
2022-11-27T18:49:06.173Z,20.43
2022-11-27T18:51:33.600Z,20.66
2022-11-27T18:54:00.970Z,20.30
2022-11-27T18:56:29.676Z,20.27
2022-11-27T18:59:02.063Z,20.15
2022-11-27T19:01:30.517Z,20.32
2022-11-27T19:04:01.187Z,20.57
2022-11-27T19:06:30.085Z,20.34
2022-11-27T19:08:57.872Z,20.17
2022-11-27T19:11:26.565Z,20.26
2022-11-27T19:13:54.630Z,20.35
2022-11-27T19:16:26.087Z,20.28
2022-11-27T19:18:55.726Z,20.58
2022-11-27T19:21:24.471Z,20.40
2022-11-27T19:23:55.143Z,20.47
2022-11-27T19:26:24.137Z,20.29
2022-11-27T19:28:52.392Z,20.28
2022-11-27T19:31:19.944Z,20.24
2022-11-27T19:33:54.169Z,20.43
2022-11-27T19:36:22.371Z,20.34
2022-11-27T19:38:54.979Z,20.48
2022-11-27T19:41:23.024Z,20.27
2022-11-27T19:43:50.271Z,20.40
2022-11-27T19:46:37.597Z,20.41
2022-11-27T19:49:06.627Z,20.39
2022-11-27T19:51:38.560Z,20.55
2022-11-27T19:54:10.031Z,20.61
2022-11-27T19:56:40.301Z,20.47
2022-11-27T19:59:08.594Z,20.55
2022-11-27T20:01:37.683Z,20.50
2022-11-27T20:04:05.389Z,20.61
2022-11-27T20:06:32.595Z,20.59
2022-11-27T20:09:01.395Z,20.44
2022-11-27T20:11:34.550Z,20.37
2022-11-27T20:14:04.295Z,20.50
2022-11-27T20:16:33.630Z,20.53
2022-11-27T20:19:01.663Z,20.37
2022-11-27T20:21:29.106Z,20.71
2022-11-27T20:23:57.309Z,20.44
2022-11-27T20:26:25.888Z,20.51
2022-11-27T20:28:54.515Z,20.72
2022-11-27T20:31:26.087Z,20.41
2022-11-27T20:33:56.327Z,20.59
2022-11-27T20:36:25.189Z,20.54
2022-11-27T20:38:54.011Z,20.55
2022-11-27T20:41:23.999Z,20.65
2022-11-27T20:43:55.389Z,20.60
2022-11-27T20:46:24.286Z,20.44
2022-11-27T20:48:52.524Z,20.49
2022-11-27T20:51:22.027Z,20.43
2022-11-27T20:53:49.760Z,20.58
2022-11-27T20:56:18.487Z,20.59
2022-11-27T20:58:46.987Z,20.35
2022-11-27T21:01:18.752Z,20.66
2022-11-27T21:03:47.186Z,20.65
2022-11-27T21:06:15.607Z,20.47
2022-11-27T21:08:43.259Z,20.50
2022-11-27T21:11:11.746Z,20.37
2022-11-27T21:13:39.275Z,20.41
2022-11-27T21:16:07.662Z,20.44
2022-11-27T21:18:35.156Z,20.49
2022-11-27T21:21:07.899Z,20.72
2022-11-27T21:23:35.308Z,20.55
2022-11-27T21:26:02.540Z,20.70
2022-11-27T21:28:30.491Z,20.49
2022-11-27T21:31:08.957Z,20.28
2022-11-27T21:33:36.778Z,20.35
2022-11-27T21:36:04.799Z,20.52
2022-11-27T21:38:32.828Z,20.38
2022-11-27T21:41:01.421Z,20.66
2022-11-27T21:43:28.720Z,20.37
2022-11-27T21:45:56.014Z,19.95
2022-11-27T21:48:23.744Z,20.40
2022-11-27T21:50:50.992Z,20.53
2022-11-27T21:53:18.629Z,20.45
2022-11-27T21:55:45.859Z,20.62
2022-11-27T21:58:13.061Z,20.79
2022-11-27T22:00:40.507Z,20.62
2022-11-27T22:03:07.824Z,20.55
2022-11-27T22:05:35.024Z,20.62
2022-11-27T22:10:47.387Z,20.49
2022-11-27T22:13:14.689Z,20.56
2022-11-27T22:15:41.884Z,20.78
2022-11-27T22:18:09.080Z,20.71
2022-11-27T22:20:36.853Z,20.35
2022-11-27T22:23:04.527Z,20.65
2022-11-27T22:25:31.775Z,20.48
2022-11-27T22:27:59.127Z,20.49
2022-11-27T22:30:27.670Z,20.24
2022-11-27T22:32:58.299Z,20.27
2022-11-27T22:35:26.009Z,20.28
2022-11-27T22:37:54.047Z,20.22
2022-11-27T22:40:22.617Z,20.32
2022-11-27T22:42:50.577Z,20.27
2022-11-27T22:45:17.884Z,20.29
2022-11-27T22:47:45.171Z,20.61
2022-11-27T22:50:12.622Z,20.58
2022-11-27T22:52:39.905Z,20.35
2022-11-27T22:55:07.867Z,20.24
2022-11-27T22:57:35.227Z,20.29
2022-11-27T23:00:02.877Z,20.41
2022-11-27T23:02:30.684Z,20.13
2022-11-27T23:04:58.346Z,20.41
2022-11-27T23:07:25.716Z,20.37
2022-11-27T23:09:53.332Z,20.44
2022-11-27T23:12:20.572Z,20.34
2022-11-27T23:14:47.862Z,20.18
2022-11-27T23:17:15.089Z,20.40
2022-11-27T23:19:42.538Z,20.12
2022-11-27T23:22:09.709Z,20.28
2022-11-27T23:24:37.010Z,20.39
2022-11-27T23:27:04.194Z,20.23
2022-11-27T23:29:31.612Z,20.27
2022-11-27T23:31:59.040Z,20.09
2022-11-27T23:34:26.370Z,20.27
2022-11-27T23:36:53.684Z,20.32
2022-11-27T23:39:21.215Z,20.21
2022-11-27T23:41:49.683Z,20.31
2022-11-27T23:44:42.750Z,20.12
2022-11-27T23:47:10.984Z,20.21
2022-11-27T23:49:38.304Z,20.41
2022-11-27T23:52:05.595Z,20.28
2022-11-27T23:54:32.873Z,20.25
2022-11-27T23:57:00.310Z,20.23
2022-11-27T23:59:27.627Z,20.29
